Time;durP1;ratioP1;P1;durP2;ratioP2;P2;SDS_P1;SDS_P2;PMS_P1;PMS_P2;Temp;Humidity;BMP_temperature;BMP_pressure;BME280_temperature;BME280_humidity;BME280_pressure;Samples;Min_cycle;Max_cycle;Signal;HPM_P1;HPM_P2
2021/10/27 00:00:10;;;;;;;12.30;6.57;;;8.40;99.90;;;7.39;99.41;61730.84;5075427;28;20058;-69
2021/10/27 00:02:37;;;;;;;11.98;6.63;;;8.40;99.90;;;7.39;99.86;61730.56;5097827;28;20289;-69
2021/10/27 00:05:05;;;;;;;13.02;6.82;;;8.50;99.90;;;7.38;100.00;61729.72;5096312;28;20388;-69
2021/10/27 00:07:33;;;;;;;19.15;7.30;;;8.50;99.90;;;7.38;100.00;61729.00;5092825;28;20044;-69
2021/10/27 00:10:01;;;;;;;12.88;6.28;;;8.60;99.90;;;7.38;99.80;61729.97;5097754;28;20128;-69
2021/10/27 00:12:28;;;;;;;15.27;6.28;;;8.50;99.90;;;7.38;99.49;61729.66;5096814;28;20436;-70
2021/10/27 00:14:56;;;;;;;13.90;6.18;;;8.60;99.90;;;7.39;99.75;61729.94;5089903;28;20059;-69
2021/10/27 00:17:23;;;;;;;12.13;6.28;;;8.60;99.90;;;7.39;100.00;61730.53;5091291;28;20147;-70
2021/10/27 00:19:51;;;;;;;17.77;7.15;;;8.60;99.90;;;7.39;100.00;61730.50;5073952;28;20442;-70
2021/10/27 00:22:18;;;;;;;17.88;6.63;;;8.50;99.90;;;7.39;100.00;61729.88;5083644;28;20127;-69
2021/10/27 00:24:44;;;;;;;10.77;6.05;;;8.50;99.90;;;7.38;100.00;61728.91;5071268;28;20194;-69
2021/10/27 00:27:11;;;;;;;14.00;6.43;;;8.50;99.90;;;7.38;100.00;61728.47;5092404;28;20040;-69
2021/10/27 00:29:39;;;;;;;15.30;5.85;;;8.40;99.90;;;7.37;100.00;61727.84;5093504;28;20082;-69
2021/10/27 00:32:07;;;;;;;12.02;6.57;;;8.40;99.90;;;7.36;100.00;61727.00;5095311;28;20073;-69
2021/10/27 00:34:34;;;;;;;13.10;6.65;;;8.30;99.90;;;7.35;100.00;61725.81;5090318;28;20072;-69
2021/10/27 00:37:02;;;;;;;12.85;6.43;;;8.30;99.90;;;7.34;100.00;61724.72;5076030;28;20105;-69
2021/10/27 00:39:29;;;;;;;11.57;5.35;;;8.30;99.90;;;7.33;100.00;61723.19;5074253;28;20144;-69
2021/10/27 00:41:55;;;;;;;12.75;6.03;;;8.30;99.90;;;7.31;100.00;61722.13;5090015;28;20109;-69
2021/10/27 00:44:25;;;;;;;10.57;5.22;;;8.20;99.90;;;7.30;100.00;61720.53;5091622;28;20118;-69
2021/10/27 00:47:08;;;;;;;12.65;5.85;;;8.10;99.90;;;7.28;100.00;61718.88;5080085;28;20150;-69
2021/10/27 00:49:38;;;;;;;15.63;6.07;;;8.10;99.90;;;7.26;100.00;61716.84;5072845;28;20135;-69
2021/10/27 00:52:10;;;;;;;11.80;6.22;;;8.10;99.90;;;7.24;100.00;61714.66;5076081;28;20059;-69
2021/10/27 00:54:42;;;;;;;11.45;6.50;;;8.10;99.90;;;7.23;100.00;61713.03;5093885;28;20126;-69
2021/10/27 00:57:10;;;;;;;14.20;6.25;;;8.00;99.90;;;7.20;100.00;61710.00;5078290;28;20075;-69
2021/10/27 00:59:43;;;;;;;13.05;7.07;;;8.00;99.90;;;7.17;100.00;61706.72;5076517;28;20179;-69
2021/10/27 01:02:11;;;;;;;;;;;8.00;99.90;;;7.14;100.00;61703.91;5091191;28;20247;-69
2021/10/27 01:04:39;;;;;;;17.90;7.30;;;7.90;99.90;;;7.11;100.00;61700.50;5075889;28;19920;-69
2021/10/27 01:07:07;;;;;;;12.50;6.95;;;7.90;99.90;;;7.08;100.00;61697.19;5094154;28;20071;-69
2021/10/27 01:09:38;;;;;;;15.32;7.10;;;7.90;99.90;;;7.06;100.00;61694.56;5076927;28;20122;-69
2021/10/27 01:12:06;;;;;;;12.75;5.82;;;7.90;99.90;;;7.04;100.00;61693.56;5092101;28;20401;-69
2021/10/27 01:14:42;;;;;;;17.42;7.68;;;8.00;99.90;;;7.03;100.00;61692.13;5089235;28;20044;-69
2021/10/27 01:17:12;;;;;;;8.60;4.68;;;8.00;99.90;;;7.03;100.00;61692.38;5093088;28;20519;-69
2021/10/27 01:19:55;;;;;;;12.50;6.50;;;8.10;99.90;;;7.04;100.00;61693.50;5073677;28;20135;-69
2021/10/27 01:22:31;;;;;;;14.40;7.03;;;8.10;99.90;;;7.04;100.00;61693.72;5100916;28;20079;-69
2021/10/27 01:24:59;;;;;;;12.32;6.93;;;8.20;99.90;;;7.05;100.00;61694.56;5075208;28;20044;-69
2021/10/27 01:27:29;;;;;;;14.23;6.75;;;8.30;99.90;;;7.06;100.00;61694.94;5073421;28;20087;-70
2021/10/27 01:29:56;;;;;;;15.88;6.35;;;8.30;99.90;;;7.06;100.00;61695.66;5081615;28;20131;-69
2021/10/27 01:32:37;;;;;;;12.65;5.80;;;8.30;99.90;;;7.06;100.00;61695.91;5069779;28;20072;-69
2021/10/27 01:35:06;;;;;;;12.10;5.93;;;8.30;99.90;;;7.06;100.00;61695.75;5086579;28;20080;-69
2021/10/27 01:37:36;;;;;;;15.18;7.03;;;8.30;99.90;;;7.07;100.00;61696.13;5058906;28;20072;-69
2021/10/27 01:40:06;;;;;;;12.07;6.28;;;8.30;99.90;;;7.08;100.00;61697.41;5097139;28;20429;-69
2021/10/27 01:42:34;;;;;;;11.70;5.78;;;8.40;99.90;;;7.09;100.00;61698.63;5083518;28;20429;-69
2021/10/27 01:45:02;;;;;;;17.60;6.00;;;8.40;99.90;;;7.10;100.00;61699.31;5071606;28;20074;-69
2021/10/27 01:47:29;;;;;;;18.77;6.88;;;8.40;99.90;;;7.11;100.00;61700.56;5090584;28;20536;-70
2021/10/27 01:49:56;;;;;;;14.25;5.07;;;8.40;99.90;;;7.13;100.00;61703.09;5072771;28;20091;-69
2021/10/27 01:52:23;;;;;;;9.85;5.13;;;8.40;99.90;;;7.16;100.00;61705.84;5093855;28;20082;-69
2021/10/27 01:54:51;;;;;;;13.02;5.40;;;8.40;99.90;;;7.18;100.00;61707.84;5095955;28;20461;-71
2021/10/27 01:57:18;;;;;;;14.05;5.82;;;8.40;99.90;;;7.19;100.00;61709.66;5089459;28;20071;-69
2021/10/27 01:59:45;;;;;;;16.08;7.63;;;8.50;99.90;;;7.21;100.00;61711.41;5091169;28;20107;-70
2021/10/27 02:02:12;;;;;;;14.32;6.65;;;8.50;99.90;;;7.23;100.00;61713.47;5083676;28;20045;-70
2021/10/27 02:04:40;;;;;;;13.55;6.55;;;8.50;99.90;;;7.25;100.00;61715.66;5088983;28;20119;-70
2021/10/27 02:07:07;;;;;;;17.35;6.82;;;8.50;99.90;;;7.26;100.00;61716.38;5080083;28;20087;-70
2021/10/27 02:09:36;;;;;;;9.75;6.32;;;8.50;99.90;;;7.28;100.00;61718.34;5093088;28;20036;-70
2021/10/27 02:12:05;;;;;;;11.20;5.97;;;8.60;99.90;;;7.30;100.00;61720.94;5080493;28;20604;-70
2021/10/27 02:14:33;;;;;;;12.52;6.38;;;8.50;99.90;;;7.32;100.00;61723.28;5052748;28;20134;-70
2021/10/27 02:17:00;;;;;;;13.48;6.80;;;8.60;99.90;;;7.34;100.00;61725.47;5089023;28;20061;-70
2021/10/27 02:19:27;;;;;;;15.38;6.22;;;8.60;99.90;;;7.36;100.00;61727.06;5089947;28;20131;-70
2021/10/27 02:21:54;;;;;;;14.38;7.53;;;8.60;99.90;;;7.37;100.00;61728.41;5084842;28;20098;-70
2021/10/27 02:24:21;;;;;;;17.42;7.32;;;8.70;99.90;;;7.39;100.00;61729.44;5088166;28;20044;-70
2021/10/27 02:26:48;;;;;;;19.40;8.30;;;8.70;99.90;;;7.40;100.00;61730.72;5088329;28;20105;-69
2021/10/27 02:29:14;;;;;;;11.70;7.47;;;8.70;99.90;;;7.41;100.00;61731.31;5089550;28;20505;-70
2021/10/27 02:31:42;;;;;;;17.90;8.27;;;8.80;99.90;;;7.42;100.00;61732.56;5084771;28;20040;-70
2021/10/27 02:34:09;;;;;;;20.58;8.90;;;8.80;99.90;;;7.43;100.00;61733.66;5069520;28;20070;-70
2021/10/27 02:36:36;;;;;;;15.55;9.18;;;8.80;99.90;;;7.43;100.00;61733.59;5090715;28;20075;-70
2021/10/27 02:39:03;;;;;;;12.40;7.30;;;8.80;99.90;;;7.45;100.00;61735.69;5065107;28;20476;-70
2021/10/27 02:41:30;;;;;;;12.85;7.60;;;8.70;99.90;;;7.46;100.00;61737.38;5086217;28;20086;-70
2021/10/27 02:43:57;;;;;;;17.92;8.07;;;8.80;99.90;;;7.47;100.00;61738.72;5086622;28;20123;-70
2021/10/27 02:46:24;;;;;;;14.02;7.88;;;8.80;99.90;;;7.49;100.00;61740.03;5074725;28;20077;-70
2021/10/27 02:48:52;;;;;;;16.48;8.18;;;8.80;99.90;;;7.51;100.00;61741.97;5081170;28;20049;-70
2021/10/27 02:51:18;;;;;;;12.90;8.23;;;8.80;99.90;;;7.53;100.00;61744.41;5078015;28;20123;-70
2021/10/27 02:53:46;;;;;;;17.83;8.57;;;8.80;99.90;;;7.54;100.00;61745.44;5075973;28;20151;-70
2021/10/27 02:56:13;;;;;;;15.13;8.93;;;8.80;99.90;;;7.56;100.00;61747.69;5088925;28;20127;-70
2021/10/27 02:58:42;;;;;;;13.38;7.63;;;8.80;99.90;;;7.58;100.00;61749.69;5072903;28;20126;-70
2021/10/27 03:01:09;;;;;;;13.48;7.88;;;8.80;99.90;;;7.60;100.00;61751.88;5075239;28;20127;-70
2021/10/27 03:03:37;;;;;;;19.95;9.40;;;8.90;99.90;;;7.62;100.00;61753.97;5087678;28;20075;-70
2021/10/27 03:06:05;;;;;;;18.13;8.43;;;8.90;99.90;;;7.65;100.00;61756.94;5071330;28;20071;-70
2021/10/27 03:08:32;;;;;;;16.98;7.20;;;8.90;99.90;;;7.67;100.00;61759.25;5069314;28;20100;-70
2021/10/27 03:10:59;;;;;;;13.45;7.82;;;8.90;99.90;;;7.69;100.00;61760.94;5090066;28;20044;-70
2021/10/27 03:13:26;;;;;;;12.60;6.20;;;8.90;99.90;;;7.72;100.00;61763.84;5093742;28;20128;-70
2021/10/27 03:15:53;;;;;;;17.85;9.43;;;9.00;99.90;;;7.74;99.98;61766.50;5084507;28;20171;-70
2021/10/27 03:18:25;;;;;;;16.13;8.55;;;9.00;99.90;;;7.77;100.00;61768.69;5088534;28;20048;-70
2021/10/27 03:20:52;;;;;;;14.60;7.28;;;9.00;99.90;;;7.79;99.79;61771.16;5081989;28;20052;-69
2021/10/27 03:23:19;;;;;;;15.38;6.97;;;9.00;99.90;;;7.81;99.83;61773.06;5085287;28;20098;-70
2021/10/27 03:25:46;;;;;;;16.75;7.47;;;9.00;99.90;;;7.83;99.77;61775.25;5088144;28;20068;-70
2021/10/27 03:28:13;;;;;;;13.38;6.28;;;9.00;99.90;;;7.84;99.55;61777.13;5089257;28;20075;-70
2021/10/27 03:30:40;;;;;;;12.75;6.88;;;9.00;99.90;;;7.86;99.80;61779.25;5089464;28;20079;-70
2021/10/27 03:33:08;;;;;;;12.63;6.50;;;8.90;99.90;;;7.87;100.00;61780.34;5079229;28;20071;-70
2021/10/27 03:35:35;;;;;;;10.93;6.13;;;8.90;99.90;;;7.88;100.00;61781.91;5088189;28;20075;-70
2021/10/27 03:38:02;;;;;;;13.27;6.30;;;8.90;99.90;;;7.89;99.87;61782.88;5071355;28;20048;-70
2021/10/27 03:40:29;;;;;;;10.52;5.78;;;8.90;99.90;;;7.90;99.88;61783.63;5084430;28;20123;-70
2021/10/27 03:42:56;;;;;;;10.65;5.85;;;8.90;99.90;;;7.91;99.53;61784.66;5083429;28;20525;-70
2021/10/27 03:45:23;;;;;;;12.73;5.90;;;8.90;99.90;;;7.91;99.98;61785.06;5087939;28;20365;-70
2021/10/27 03:47:51;;;;;;;12.38;6.00;;;8.90;99.90;;;7.91;99.80;61785.19;5086393;28;20044;-70
2021/10/27 03:50:18;;;;;;;10.93;6.43;;;8.90;99.90;;;7.91;100.00;61785.47;5076994;28;20046;-70
2021/10/27 03:52:45;;;;;;;14.88;7.05;;;8.80;99.90;;;7.92;100.00;61785.84;5087165;28;20078;-70
2021/10/27 03:55:12;;;;;;;20.80;9.30;;;8.80;99.90;;;7.90;100.00;61784.06;5074058;28;20210;-70
2021/10/27 03:57:39;;;;;;;20.33;9.65;;;8.80;99.90;;;7.89;100.00;61782.31;5065458;28;20159;-70
2021/10/27 04:00:09;;;;;;;14.88;7.88;;;8.80;99.90;;;7.88;100.00;61781.75;5086455;28;20147;-70
2021/10/27 04:02:41;;;;;;;12.18;6.60;;;8.80;99.90;;;7.88;100.00;61781.50;5086112;28;20140;-70
2021/10/27 04:05:09;;;;;;;14.60;6.72;;;8.80;99.90;;;7.88;100.00;61781.91;5050037;28;20131;-70
2021/10/27 04:07:37;;;;;;;23.10;6.00;;;8.80;99.90;;;7.88;100.00;61782.03;5075726;28;20047;-70
2021/10/27 04:10:10;;;;;;;12.25;6.85;;;8.80;99.90;;;7.89;100.00;61782.63;5088280;28;20522;-70
2021/10/27 04:12:41;;;;;;;9.65;5.82;;;8.80;99.90;;;7.89;100.00;61783.63;5074193;28;20124;-70
2021/10/27 04:15:11;;;;;;;9.95;5.45;;;8.80;99.90;;;7.90;100.00;61783.41;5085164;28;20050;-70
2021/10/27 04:17:39;;;;;;;10.50;6.03;;;8.90;99.90;;;7.90;100.00;61784.38;5072732;28;20509;-70
2021/10/27 04:20:09;;;;;;;18.73;7.15;;;8.90;99.90;;;7.91;100.00;61784.59;5082546;28;20131;-70
2021/10/27 04:22:39;;;;;;;8.45;5.30;;;8.90;99.90;;;7.91;100.00;61784.38;5078918;28;20052;-70
2021/10/27 04:25:09;;;;;;;13.18;7.28;;;8.90;99.90;;;7.92;100.00;61785.06;5063326;28;20479;-70
2021/10/27 04:27:37;;;;;;;17.27;7.10;;;8.90;99.90;;;7.93;100.00;61786.03;5058887;28;20580;-70
2021/10/27 04:30:06;;;;;;;11.60;6.75;;;8.90;99.90;;;7.93;100.00;61787.22;5087466;28;20044;-70
2021/10/27 04:32:35;;;;;;;11.57;5.60;;;8.90;99.90;;;7.94;100.00;61788.47;5070019;28;20123;-70
2021/10/27 04:35:04;;;;;;;12.98;6.10;;;9.00;99.90;;;7.95;100.00;61789.38;5083750;28;20516;-70
2021/10/27 04:37:35;;;;;;;14.20;7.90;;;9.00;99.90;;;7.96;100.00;61789.94;5078081;28;20047;-70
2021/10/27 04:40:09;;;;;;;17.05;8.23;;;9.00;99.90;;;7.95;100.00;61789.19;5083436;28;20044;-70
2021/10/27 04:42:37;;;;;;;17.52;7.60;;;9.10;99.90;;;7.96;100.00;61789.44;5064327;28;20123;-69
2021/10/27 04:45:07;;;;;;;14.73;6.40;;;9.10;99.90;;;7.97;100.00;61791.25;5089179;28;20048;-70
2021/10/27 04:47:35;;;;;;;11.93;6.45;;;9.00;99.90;;;7.99;100.00;61792.91;5084556;28;20072;-70
2021/10/27 04:50:06;;;;;;;16.25;7.53;;;9.00;99.90;;;8.00;100.00;61793.97;5090510;28;20150;-70
2021/10/27 04:52:33;;;;;;;11.63;5.90;;;9.10;99.90;;;8.01;100.00;61795.25;5097633;28;20044;-70
2021/10/27 04:55:00;;;;;;;17.48;7.70;;;9.10;99.90;;;8.01;100.00;61795.94;5048713;28;20131;-70
2021/10/27 04:57:27;;;;;;;13.98;7.32;;;9.00;99.90;;;8.02;100.00;61796.59;5098002;28;20092;-70
2021/10/27 04:59:54;;;;;;;13.23;6.45;;;9.10;99.90;;;8.03;100.00;61798.13;5081692;28;20079;-70
2021/10/27 05:02:21;;;;;;;13.73;6.47;;;9.10;99.90;;;8.05;100.00;61799.75;5076307;28;20056;-70
2021/10/27 05:04:48;;;;;;;12.00;7.13;;;9.10;99.90;;;8.05;100.00;61799.88;5079923;28;20044;-70
2021/10/27 05:07:16;;;;;;;13.70;7.88;;;9.10;99.90;;;8.06;100.00;61800.75;5085353;28;20139;-70
2021/10/27 05:09:42;;;;;;;12.60;7.00;;;9.20;99.90;;;8.07;100.00;61802.00;5096419;28;20120;-70
2021/10/27 05:12:11;;;;;;;10.23;5.32;;;9.20;99.90;;;8.09;100.00;61804.31;5090585;28;20102;-70
2021/10/27 05:14:41;;;;;;;10.43;5.97;;;9.20;99.90;;;8.10;100.00;61806.13;5076721;28;20154;-70
2021/10/27 05:17:11;;;;;;;10.20;6.03;;;9.20;99.90;;;8.12;99.95;61808.31;5072495;28;20138;-70
2021/10/27 05:19:40;;;;;;;14.95;5.43;;;9.20;99.90;;;8.14;100.00;61810.06;5095729;28;20055;-70
2021/10/27 05:22:09;;;;;;;16.95;6.32;;;9.30;99.90;;;8.16;100.00;61811.59;5075047;28;20145;-70
2021/10/27 05:24:36;;;;;;;12.32;6.93;;;9.30;99.90;;;8.18;100.00;61813.50;5086095;28;20052;-70
2021/10/27 05:27:04;;;;;;;11.68;6.30;;;9.30;99.90;;;8.19;100.00;61814.56;5087956;28;20131;-70
2021/10/27 05:29:31;;;;;;;9.98;6.15;;;9.30;99.90;;;8.21;99.91;61816.47;5095335;28;20044;-70
2021/10/27 05:31:58;;;;;;;20.15;9.63;;;9.30;99.90;;;8.21;100.00;61816.47;5077811;28;20127;-70
2021/10/27 05:34:26;;;;;;;20.38;9.48;;;9.30;99.90;;;8.20;100.00;61815.81;5085059;28;20166;-70
2021/10/27 05:36:53;;;;;;;20.15;9.98;;;9.30;99.90;;;8.20;100.00;61815.53;5096862;28;20095;-70
2021/10/27 05:39:20;;;;;;;26.08;14.82;;;9.20;99.90;;;8.18;100.00;61813.56;5097059;28;20513;-70
2021/10/27 05:41:49;;;;;;;24.33;13.00;;;9.20;99.90;;;8.17;100.00;61813.13;5082285;28;20056;-70
2021/10/27 05:44:19;;;;;;;19.33;9.32;;;9.10;99.90;;;8.17;100.00;61812.97;5094521;28;20561;-70
2021/10/27 05:46:48;;;;;;;22.85;12.45;;;9.10;99.90;;;8.16;100.00;61811.47;5081668;28;20100;-70
2021/10/27 05:51:57;;;;;;;21.33;12.75;;;9.10;99.90;;;8.12;100.00;61807.13;5090025;28;20044;-70
2021/10/27 05:57:10;;;;;;;12.38;7.28;;;9.00;99.90;;;8.12;100.00;61808.16;5096074;28;20044;-70
2021/10/27 05:59:37;;;;;;;12.77;6.88;;;9.10;99.90;;;8.13;100.00;61808.75;5096186;28;20147;-70
2021/10/27 06:02:04;;;;;;;15.25;7.50;;;9.10;99.90;;;8.14;100.00;61809.44;5079180;28;20127;-70
2021/10/27 06:04:33;;;;;;;13.50;7.38;;;9.20;99.90;;;8.15;100.00;61810.25;5080267;28;20040;-70
2021/10/27 06:07:00;;;;;;;14.25;9.10;;;9.30;99.90;;;8.15;100.00;61810.78;5092839;28;20450;-70
2021/10/27 06:09:27;;;;;;;14.98;8.52;;;9.30;99.90;;;8.16;100.00;61811.31;5092529;28;20051;-70
2021/10/27 06:11:58;;;;;;;15.75;10.07;;;9.30;99.90;;;8.17;100.00;61812.25;5074783;28;20131;-70
2021/10/27 06:14:25;;;;;;;14.25;9.07;;;9.30;99.90;;;8.18;100.00;61813.47;5101089;28;20091;-70
2021/10/27 06:16:52;;;;;;;20.20;13.52;;;9.30;99.90;;;8.18;100.00;61813.88;5068636;28;20532;-71
2021/10/27 06:19:19;;;;;;;18.90;10.30;;;9.40;99.90;;;8.18;100.00;61813.63;5071669;28;20518;-70
2021/10/27 06:21:46;;;;;;;14.25;8.02;;;9.40;99.90;;;8.19;100.00;61814.63;5073828;28;20136;-70
2021/10/27 06:24:13;;;;;;;13.52;7.35;;;9.40;99.90;;;8.21;100.00;61816.19;5063698;28;20076;-70
2021/10/27 06:26:40;;;;;;;12.45;7.07;;;9.40;99.90;;;8.23;100.00;61819.09;5089197;28;20132;-70
2021/10/27 06:29:10;;;;;;;12.90;8.00;;;9.40;99.90;;;8.25;100.00;61820.97;5074711;28;20127;-70
2021/10/27 06:31:46;;;;;;;15.23;6.03;;;9.40;99.90;;;8.26;100.00;61822.03;5091020;28;20075;-70
2021/10/27 06:34:33;;;;;;;14.45;6.90;;;9.40;99.90;;;8.27;100.00;61822.97;5077228;28;20066;-70
2021/10/27 06:48:00;;;;;;;14.55;8.30;;;9.40;99.90;;;8.30;100.00;61825.09;5086361;28;20072;-70
2021/10/27 06:50:27;;;;;;;12.48;7.47;;;9.40;99.90;;;8.32;100.00;61827.13;5090520;28;20083;-69
2021/10/27 06:52:55;;;;;;;14.98;8.50;;;9.50;99.90;;;8.34;100.00;61828.81;5089494;28;20158;-70
2021/10/27 06:55:22;;;;;;;14.40;7.95;;;9.60;99.90;;;8.37;100.00;61831.97;5070907;28;20057;-70
2021/10/27 06:57:49;;;;;;;13.75;6.63;;;9.70;99.90;;;8.40;99.07;61835.50;5066990;28;20167;-70
2021/10/27 07:00:38;;;;;;;13.98;7.50;;;9.80;99.90;;;8.42;99.64;61837.53;5088123;28;20048;-69
2021/10/27 07:16:16;;;;;;;12.20;5.88;;;9.90;99.90;;;8.57;98.39;61852.44;5079560;28;20084;-70
2021/10/27 07:18:43;;;;;;;11.18;5.88;;;10.10;99.90;;;8.61;98.46;61856.31;5090304;28;20490;-70
2021/10/27 07:21:10;;;;;;;13.52;6.32;;;10.10;99.90;;;8.64;98.32;61859.22;5085109;28;20066;-70
2021/10/27 07:23:40;;;;;;;15.10;7.55;;;10.20;99.90;;;8.65;99.00;61860.47;5098603;28;20493;-70
2021/10/27 07:26:08;;;;;;;13.15;7.57;;;10.10;99.90;;;8.66;99.00;61862.25;5085777;28;20044;-70
2021/10/27 07:28:35;;;;;;;13.00;7.75;;;10.20;99.90;;;8.69;98.69;61865.13;5088575;28;20122;-70
2021/10/27 07:31:04;;;;;;;12.93;6.55;;;10.30;99.90;;;8.73;98.31;61869.03;5071653;28;20417;-70
2021/10/27 07:33:33;;;;;;;15.38;6.57;;;10.30;99.90;;;8.77;97.22;61873.53;5086183;28;20044;-70
2021/10/27 07:36:22;;;;;;;14.43;6.93;;;10.40;99.90;;;8.82;96.57;61878.00;5075240;28;20082;-70
2021/10/27 07:41:34;;;;;;;17.88;7.90;;;10.50;99.90;;;8.88;96.78;61884.41;5088448;28;20071;-70
2021/10/27 07:44:05;;;;;;;14.10;6.25;;;10.50;99.90;;;8.93;96.48;61889.41;5086558;28;20143;-70
2021/10/27 07:46:32;;;;;;;14.68;7.30;;;10.70;99.90;;;8.99;95.58;61895.66;5075479;28;20101;-70
2021/10/27 07:48:59;;;;;;;13.65;6.53;;;10.80;99.90;;;9.05;94.97;61902.63;5085341;28;20044;-70
2021/10/27 07:51:27;;;;;;;22.73;8.20;;;10.90;99.90;;;9.11;95.01;61908.59;5079164;28;20059;-70
2021/10/27 07:53:54;;;;;;;18.85;7.95;;;10.90;99.90;;;9.17;95.25;61915.00;5094106;28;20052;-70
2021/10/27 07:56:21;;;;;;;16.92;6.90;;;11.00;99.90;;;9.23;95.02;61921.09;5069869;28;20089;-70
2021/10/27 07:58:49;;;;;;;13.82;7.03;;;11.10;99.90;;;9.25;96.39;61922.91;5089998;28;20087;-70
2021/10/27 08:01:16;;;;;;;23.50;8.02;;;11.10;99.90;;;9.29;96.99;61927.13;5088944;28;20538;-70
2021/10/27 08:03:43;;;;;;;23.05;9.55;;;11.10;99.90;;;9.32;97.19;61930.78;5083263;28;20054;-70
2021/10/27 08:06:12;;;;;;;51.08;10.77;;;11.00;99.90;;;9.33;99.46;61931.59;5082526;28;20040;-70
2021/10/27 08:08:39;;;;;;;29.92;11.15;;;10.90;99.90;;;9.32;100.00;61930.19;5090044;28;20048;-70
2021/10/27 08:11:08;;;;;;;19.42;9.73;;;10.80;99.90;;;9.33;100.00;61931.59;5070626;28;20075;-70
2021/10/27 08:13:35;;;;;;;19.02;8.75;;;10.80;99.90;;;9.36;99.88;61934.75;5071569;28;20103;-70
2021/10/27 08:16:03;;;;;;;19.65;9.43;;;10.80;99.90;;;9.37;99.53;61936.00;5093401;28;20048;-70
2021/10/27 08:18:30;;;;;;;23.45;10.43;;;10.80;99.90;;;9.36;100.00;61934.50;5087440;28;20513;-70
2021/10/27 08:20:58;;;;;;;16.05;8.23;;;10.80;99.90;;;9.37;100.00;61936.13;5086514;28;20044;-70
2021/10/27 08:23:29;;;;;;;24.80;9.27;;;10.70;99.90;;;9.37;100.00;61935.84;5075104;28;20128;-70
2021/10/27 08:25:59;;;;;;;24.67;9.73;;;10.80;99.90;;;9.35;100.00;61934.13;5071839;28;20119;-70
2021/10/27 08:28:34;;;;;;;25.88;10.35;;;10.90;99.90;;;9.34;100.00;61932.91;5058832;28;20048;-70
2021/10/27 08:36:00;;;;;;;18.80;8.43;;;10.80;99.90;;;9.38;99.47;61937.19;5062796;28;20497;-70
2021/10/27 08:38:28;;;;;;;23.55;9.95;;;10.80;99.90;;;9.40;99.95;61938.38;5083327;28;20048;-70
2021/10/27 08:40:55;;;;;;;21.90;9.30;;;10.90;99.90;;;9.40;100.00;61939.09;5070356;28;20052;-70
2021/10/27 08:43:24;;;;;;;13.15;7.10;;;10.90;99.90;;;9.43;98.57;61942.03;5087421;28;20047;-70
2021/10/27 08:45:52;;;;;;;24.13;9.65;;;11.00;99.90;;;9.47;98.00;61945.88;5070386;28;20068;-70
2021/10/27 08:48:20;;;;;;;20.88;9.25;;;11.10;99.90;;;9.50;97.35;61949.13;5077995;28;20104;-70
2021/10/27 08:50:50;;;;;;;18.17;8.25;;;11.20;99.90;;;9.52;98.07;61951.59;5045450;28;20079;-71
2021/10/27 08:53:20;;;;;;;18.23;9.43;;;11.10;99.90;;;9.52;99.11;61952.19;5091726;28;20075;-70
2021/10/27 08:55:49;;;;;;;22.42;9.25;;;11.10;99.90;;;9.52;100.00;61951.81;5084616;28;20146;-70
2021/10/27 08:58:42;;;;;;;19.13;10.50;;;11.00;99.90;;;9.53;99.42;61952.31;5069822;28;20063;-70
2021/10/27 09:01:36;;;;;;;21.48;9.35;;;11.00;99.90;;;9.53;100.00;61953.47;5067354;28;20051;-70
2021/10/27 09:37:24;;;;;;;22.98;12.23;;;11.70;99.90;;;9.79;97.07;61980.81;5063750;28;20521;-70
2021/10/27 09:40:53;;;;;;;17.55;10.07;;;11.80;99.90;;;9.79;98.24;61981.34;5074890;28;20052;-70
2021/10/27 09:46:58;;;;;;;23.83;11.35;;;11.60;99.90;;;9.88;95.50;61989.78;5084085;28;20439;-70
2021/10/27 10:06:56;;;;;;;15.88;8.10;;;12.40;99.90;;;10.32;92.02;62035.47;5085281;28;20157;-70
2021/10/27 10:09:26;;;;;;;19.17;9.65;;;12.50;99.90;;;10.41;91.30;62044.28;5086520;28;20478;-70
2021/10/27 10:11:54;;;;;;;19.73;9.68;;;12.60;99.90;;;10.45;91.58;62049.22;5090913;28;20082;-69
2021/10/27 10:14:22;;;;;;;13.40;7.88;;;12.50;99.90;;;10.52;91.25;62056.72;5086264;28;20123;-71
2021/10/27 10:16:55;;;;;;;14.27;7.57;;;12.50;99.90;;;10.60;90.83;62064.84;5082084;28;20044;-69
2021/10/27 10:19:38;;;;;;;15.70;8.38;;;12.70;99.90;;;10.67;91.19;62071.69;5066625;28;20043;-69
2021/10/27 10:22:37;;;;;;;17.02;10.10;;;12.70;99.90;;;10.70;92.23;62074.97;5071554;28;20051;-69
2021/10/27 10:25:24;;;;;;;20.67;9.93;;;12.60;99.90;;;10.72;92.78;62076.56;5069862;28;20131;-70
2021/10/27 10:28:16;;;;;;;24.60;10.13;;;12.40;99.90;;;10.70;95.73;62074.97;5083697;28;20136;-69
2021/10/27 10:30:53;;;;;;;25.00;10.07;;;12.30;99.90;;;10.68;96.77;62072.97;5073654;28;20073;-68
2021/10/27 10:33:35;;;;;;;19.13;10.23;;;12.30;99.90;;;10.68;95.66;62073.13;5071392;28;20048;-69
2021/10/27 10:36:22;;;;;;;18.48;9.93;;;12.20;99.90;;;10.70;94.37;62075.25;5081194;28;20150;-69
2021/10/27 11:01:59;;;;;;;19.42;9.45;;;12.50;99.90;;;10.79;93.67;62084.56;5082289;28;20572;-70
2021/10/27 11:45:09;;;;;;;9.15;6.03;;;13.70;99.90;;;11.27;86.02;62134.22;5083275;28;20148;-69
2021/10/27 11:47:43;;;;;;;10.50;6.00;;;13.80;99.90;;;11.37;83.01;62143.97;5085805;28;20119;-69
2021/10/27 11:50:14;;;;;;;11.52;6.68;;;13.90;99.90;;;11.46;82.79;62154.06;5083344;28;20278;-69
2021/10/27 11:52:48;;;;;;;15.10;7.80;;;14.10;99.90;;;11.49;86.01;62157.09;5071452;28;20048;-69
2021/10/27 11:55:19;;;;;;;12.82;7.00;;;14.30;99.90;;;11.51;86.95;62159.53;5066601;28;20062;-69
2021/10/27 11:57:51;;;;;;;15.43;7.32;;;14.40;99.90;;;11.55;86.21;62163.13;5089941;28;20147;-69
2021/10/27 12:00:25;;;;;;;16.48;6.63;;;14.40;99.90;;;11.59;86.05;62167.59;5082814;28;20085;-69
2021/10/27 12:03:07;;;;;;;12.48;5.85;;;14.30;99.90;;;11.68;81.95;62177.25;5070694;28;20238;-69
2021/10/27 12:19:27;;;;;;;7.28;4.75;;;15.30;99.90;;;12.33;76.33;62244.59;5080512;28;20106;-70
2021/10/27 12:22:08;;;;;;;9.88;5.40;;;15.20;99.90;;;12.39;77.83;62250.91;5087631;28;20066;-69
2021/10/27 12:24:38;;;;;;;9.02;4.95;;;15.20;99.90;;;12.49;76.61;62261.69;5092500;28;20072;-69
2021/10/27 12:27:30;;;;;;;7.93;4.75;;;15.20;99.90;;;12.60;75.35;62272.50;5092963;28;20127;-69
2021/10/27 12:30:04;;;;;;;9.33;5.20;;;15.40;99.90;;;12.70;75.68;62283.53;5041277;28;20490;-70
2021/10/27 12:32:33;;;;;;;13.95;6.20;;;15.40;99.90;;;12.78;76.59;62291.72;5054592;28;20119;-70
2021/10/27 12:35:09;;;;;;;11.38;5.85;;;15.20;99.90;;;12.83;77.70;62296.50;5085376;28;20040;-70
2021/10/27 12:37:48;;;;;;;12.13;6.72;;;14.90;99.90;;;12.88;78.57;62302.09;5073483;28;20043;-70
2021/10/27 12:40:28;;;;;;;13.40;6.80;;;14.90;99.90;;;12.93;77.43;62306.53;5094586;28;20362;-70
2021/10/27 12:43:06;;;;;;;10.40;5.85;;;14.90;99.90;;;13.00;77.33;62314.50;5089451;28;20134;-70
2021/10/27 12:45:40;;;;;;;9.18;5.97;;;15.20;99.90;;;13.06;77.03;62320.91;5068496;28;20088;-70
2021/10/27 12:48:22;;;;;;;11.55;6.07;;;15.40;99.90;;;13.12;76.04;62326.78;5069581;28;20547;-70
2021/10/27 12:51:03;;;;;;;10.60;5.72;;;15.50;99.90;;;13.17;76.67;62331.66;5082716;28;20095;-70
2021/10/27 12:53:44;;;;;;;9.23;5.10;;;15.50;99.90;;;13.23;75.62;62338.09;5079955;28;20040;-70
2021/10/27 12:56:23;;;;;;;13.02;6.13;;;15.50;99.90;;;13.25;77.04;62340.06;5072247;28;20050;-70
2021/10/27 12:59:02;;;;;;;11.68;5.72;;;15.30;99.90;;;13.28;77.18;62342.97;5096118;28;20050;-70
2021/10/27 13:07:03;;;;;;;11.93;5.40;;;15.30;99.90;;;13.35;76.81;62350.56;5070733;28;20044;-70
2021/10/27 13:15:06;;;;;;;9.50;5.60;;;18.00;99.90;;;13.67;70.26;62383.59;5078361;28;20398;-70
2021/10/27 13:18:00;;;;;;;9.73;5.35;;;19.30;99.90;;;13.82;69.13;62399.28;5057443;28;20055;-71
2021/10/27 13:20:35;;;;;;;12.82;7.50;;;20.20;99.90;;;14.02;67.89;62419.47;5083988;28;20056;-68
2021/10/27 13:23:14;;;;;;;9.40;5.10;;;21.70;99.90;;;14.23;64.93;62441.88;5081109;28;20079;-69
2021/10/27 13:31:15;;;;;;;6.97;3.50;;;23.60;99.90;;;14.96;61.82;62517.56;5074100;28;20047;-69
2021/10/27 13:33:42;;;;;;;7.57;4.03;;;24.50;99.90;;;15.21;59.44;62543.59;5092915;28;20450;-69
2021/10/27 13:36:11;;;;;;;6.85;3.75;;;24.90;99.70;;;15.46;57.93;62570.41;5094048;28;20516;-69